Carlock, Illinois
Current Conditions -  °F | °C
As of 3:56 AM on Friday 31 Oct 2014 (Local Time) from KBMI Reporting Station
Overcast Overcast  
Wind Chill: 40°   Ceiling: 3900
Heat Index: 46°   Visibility: 10mi
Dew Point: 41°   Wind: 13mph
Humidity: 83%   Direction: 320°NW
Pressure: 30.07"   Gusts: NA
Location:  40.58°N, 89.13°W
Report Text: KBMI 310856Z AUTO 32011KT 10SM BKN039 OVC047 08/05 A3007 RMK AO2 56003 60000 T00770050 RAB04E34 P0000 SLP188
Loading
Personal Weather Stations






























Interactive Weather Map
Tropical Storm Tracking
New forecast layout! Learn more

10-Day Weather Forecast

Advertisements
Track Severe Weather on mobile